Time;durP1;ratioP1;P1;durP2;ratioP2;P2;SDS_P1;SDS_P2;PMS_P1;PMS_P2;Temp;Humidity;BMP_temperature;BMP_pressure;BME280_temperature;BME280_humidity;BME280_pressure;Samples;Min_cycle;Max_cycle;Signal;HPM_P1;HPM_P2
2023/06/20 00:01:50;;;;;;;3.85;1.23;;;;;;;17.91;70.96;99586.63;5113889;28;20063;-63
2023/06/20 00:04:19;;;;;;;1.17;1.08;;;;;;;17.91;70.99;99582.28;5114171;28;20502;-63
2023/06/20 00:06:48;;;;;;;1.23;1.03;;;;;;;17.88;71.40;99577.22;5113891;28;20039;-63
2023/06/20 00:09:17;;;;;;;1.63;1.03;;;;;;;17.90;71.13;99578.00;5114177;28;20040;-64
2023/06/20 00:11:46;;;;;;;2.60;1.43;;;;;;;17.94;70.95;99571.88;5113779;28;20039;-63
2023/06/20 00:14:15;;;;;;;1.40;0.75;;;;;;;17.94;71.58;99583.94;5113811;28;20556;-63
2023/06/20 00:16:43;;;;;;;1.17;1.07;;;;;;;17.91;71.47;99591.78;5113987;28;20051;-63
2023/06/20 00:19:14;;;;;;;1.03;0.80;;;;;;;17.87;72.00;99574.69;5114036;28;20378;-63
2023/06/20 00:21:43;;;;;;;2.42;1.30;;;;;;;17.77;72.31;99578.47;5113725;28;20071;-63
2023/06/20 00:24:12;;;;;;;0.73;0.73;;;;;;;17.69;72.73;99575.25;5114018;28;20092;-63
2023/06/20 00:26:41;;;;;;;4.70;1.02;;;;;;;17.64;72.87;99572.81;5113646;28;20046;-64
2023/06/20 00:29:10;;;;;;;1.50;1.10;;;;;;;17.70;72.86;99582.97;5113590;28;20477;-63
2023/06/20 00:31:38;;;;;;;2.80;1.27;;;;;;;17.72;73.08;99585.50;5112566;28;20118;-64
2023/06/20 00:34:07;;;;;;;1.77;1.10;;;;;;;17.68;73.13;99581.34;5113638;28;20064;-64
2023/06/20 00:36:38;;;;;;;2.58;1.48;;;;;;;17.68;73.47;99576.19;5113549;28;20472;-63
2023/06/20 00:39:07;;;;;;;1.67;1.55;;;;;;;17.68;73.48;99582.19;5113174;28;20047;-64
2023/06/20 00:41:36;;;;;;;1.58;1.48;;;;;;;17.70;73.63;99593.31;5113794;28;20048;-64
2023/06/20 00:44:06;;;;;;;1.42;1.33;;;;;;;17.65;73.70;99594.31;5113762;28;20475;-63
2023/06/20 00:46:38;;;;;;;1.77;1.23;;;;;;;17.61;73.75;99587.59;5113521;28;20119;-63
2023/06/20 00:49:10;;;;;;;1.40;1.23;;;;;;;17.60;73.96;99596.19;5113389;28;20047;-64
2023/06/20 00:51:41;;;;;;;2.05;1.65;;;;;;;17.49;74.18;99587.91;5112419;28;20050;-64
2023/06/20 00:54:11;;;;;;;1.35;1.25;;;;;;;17.31;74.65;99586.72;5113498;28;20039;-63
2023/06/20 00:56:41;;;;;;;1.60;1.50;;;;;;;17.28;74.60;99579.91;5112388;28;20501;-64
2023/06/20 00:59:11;;;;;;;1.67;1.15;;;;;;;17.37;74.63;99589.97;5113387;28;20044;-63
2023/06/20 01:01:40;;;;;;;1.53;1.37;;;;;;;17.40;74.64;99589.88;5113728;28;20139;-63
2023/06/20 01:04:12;;;;;;;1.38;1.27;;;;;;;17.44;74.90;99586.31;5116148;28;20284;-63
2023/06/20 01:06:51;;;;;;;1.00;0.75;;;;;;;17.46;74.66;99585.41;5116972;28;20184;-64
2023/06/20 01:09:33;;;;;;;3.88;1.92;;;;;;;17.38;74.68;99565.84;5116886;28;20051;-64
2023/06/20 01:12:14;;;;;;;2.47;1.52;;;;;;;17.54;74.53;99586.06;5116936;28;20043;-64
2023/06/20 01:14:53;;;;;;;3.65;2.50;;;;;;;17.52;73.89;99583.53;5116960;28;20485;-63
2023/06/20 01:17:29;;;;;;;0.70;0.70;;;;;;;17.52;73.66;99585.25;5116011;28;20043;-63
2023/06/20 01:20:05;;;;;;;1.88;1.73;;;;;;;17.49;73.55;99575.00;5117015;28;20183;-63
2023/06/20 01:22:57;;;;;;;1.00;0.95;;;;;;;17.53;73.35;99581.78;5117248;28;20040;-63
2023/06/20 01:25:36;;;;;;;1.00;0.95;;;;;;;17.53;73.03;99584.38;5116605;28;20044;-63
2023/06/20 01:28:09;;;;;;;3.88;2.28;;;;;;;17.51;73.12;99580.97;5116569;28;20118;-63
2023/06/20 01:30:46;;;;;;;6.82;1.48;;;;;;;17.54;73.26;99580.91;5116581;28;20048;-63
2023/06/20 01:33:24;;;;;;;1.20;1.10;;;;;;;17.50;73.15;99574.09;5115299;28;20063;-63
2023/06/20 01:35:55;;;;;;;0.82;0.80;;;;;;;17.48;73.28;99568.16;5116746;27;20129;-63
2023/06/20 01:38:29;;;;;;;3.65;1.25;;;;;;;17.46;73.35;99573.38;5097375;28;20117;-63
2023/06/20 01:41:01;;;;;;;1.95;1.33;;;;;;;17.48;73.17;99568.16;5115336;28;20126;-63
2023/06/20 01:43:32;;;;;;;1.60;1.33;;;;;;;17.46;73.33;99572.53;5116886;28;20130;-63
2023/06/20 01:46:06;;;;;;;1.83;1.13;;;;;;;17.38;73.66;99568.44;5116582;28;20431;-63
2023/06/20 01:48:38;;;;;;;1.75;1.05;;;;;;;17.36;74.16;99565.06;5116190;28;20051;-63
2023/06/20 01:51:07;;;;;;;1.45;1.27;;;;;;;17.32;74.36;99565.19;5114870;28;20051;-64
2023/06/20 01:53:39;;;;;;;1.10;1.00;;;;;;;17.25;74.69;99563.69;5116617;28;20118;-64
2023/06/20 01:56:08;;;;;;;2.72;1.70;;;;;;;17.24;75.18;99573.16;5114860;28;20047;-63
2023/06/20 01:58:41;;;;;;;1.65;1.33;;;;;;;17.27;75.33;99567.06;5114717;28;20516;-63
2023/06/20 02:01:12;;;;;;;1.85;1.05;;;;;;;17.27;75.25;99567.94;5114590;28;20051;-63
2023/06/20 02:03:43;;;;;;;1.30;1.15;;;;;;;17.21;75.12;99562.94;5116168;28;20051;-63
2023/06/20 02:06:14;;;;;;;5.60;2.08;;;;;;;17.22;75.34;99574.09;5116137;28;20043;-63
2023/06/20 02:08:45;;;;;;;0.80;0.80;;;;;;;17.26;75.18;99586.88;5114961;28;20425;-63
2023/06/20 02:11:15;;;;;;;1.02;0.88;;;;;;;17.34;74.73;99569.44;5115723;28;20055;-63
2023/06/20 02:13:45;;;;;;;2.03;0.95;;;;;;;17.30;74.66;99566.97;5115734;28;20059;-63
2023/06/20 02:16:15;;;;;;;2.08;1.45;;;;;;;17.30;74.70;99562.66;5114696;28;20489;-62
2023/06/20 02:18:47;;;;;;;2.45;1.83;;;;;;;17.27;74.53;99567.94;5116010;28;20074;-63
2023/06/20 02:21:22;;;;;;;1.00;0.98;;;;;;;17.26;74.22;99565.38;5114905;28;20070;-63
2023/06/20 02:23:55;;;;;;;1.48;1.38;;;;;;;17.24;74.16;99562.00;5115421;28;20051;-63
2023/06/20 02:26:32;;;;;;;1.65;1.00;;;;;;;17.27;73.93;99570.50;5115532;28;20496;-63
2023/06/20 02:29:06;;;;;;;2.72;1.98;;;;;;;17.28;74.10;99573.91;5115363;28;20048;-63
2023/06/20 02:31:40;;;;;;;2.83;1.33;;;;;;;17.29;74.07;99571.31;5115480;28;20393;-63
2023/06/20 02:34:13;;;;;;;1.45;1.35;;;;;;;17.17;74.23;99587.13;5115873;28;20048;-63
2023/06/20 02:36:45;;;;;;;1.67;1.50;;;;;;;17.02;74.61;99582.41;5114130;28;20135;-63
2023/06/20 02:39:15;;;;;;;4.55;2.72;;;;;;;16.95;74.58;99574.88;5113693;28;20059;-63
2023/06/20 02:41:44;;;;;;;0.90;0.90;;;;;;;17.01;74.87;99596.19;5115120;28;20405;-64
2023/06/20 02:44:13;;;;;;;0.95;0.80;;;;;;;16.99;75.04;99597.13;5113863;28;20036;-63
2023/06/20 02:46:53;;;;;;;1.47;1.37;;;;;;;17.01;75.04;99600.50;5115415;28;20034;-63
2023/06/20 02:49:32;;;;;;;2.22;1.77;;;;;;;16.95;75.37;99600.66;5113794;28;20359;-63
2023/06/20 02:52:09;;;;;;;1.85;1.13;;;;;;;16.83;75.64;99606.16;5114870;28;20050;-64
2023/06/20 02:54:48;;;;;;;2.55;1.70;;;;;;;16.61;76.23;99605.88;5114866;28;20059;-64
2023/06/20 02:57:21;;;;;;;3.63;2.10;;;;;;;16.47;76.59;99602.78;5113565;28;20112;-63
2023/06/20 02:59:55;;;;;;;1.65;1.55;;;;;;;16.53;77.10;99606.06;5113573;28;20047;-63
2023/06/20 03:02:29;;;;;;;1.08;0.98;;;;;;;16.50;77.11;99597.56;5115051;28;20394;-63
2023/06/20 03:05:02;;;;;;;5.82;1.60;;;;;;;16.38;77.54;99587.56;5113530;28;20126;-63
2023/06/20 03:07:34;;;;;;;0.85;0.82;;;;;;;16.35;77.76;99592.81;5113478;28;20043;-63
2023/06/20 03:10:06;;;;;;;1.90;1.15;;;;;;;16.37;78.17;99580.72;5113536;28;20044;-63
2023/06/20 03:12:35;;;;;;;1.38;1.15;;;;;;;16.50;77.96;99600.16;5113661;28;20047;-64
2023/06/20 03:15:05;;;;;;;0.88;0.88;;;;;;;16.54;77.91;99599.19;5114558;28;20035;-63
2023/06/20 03:17:35;;;;;;;1.88;1.42;;;;;;;16.64;77.73;99603.22;5114328;28;20048;-63
2023/06/20 03:20:09;;;;;;;2.03;1.17;;;;;;;16.71;77.46;99591.88;5114884;28;20054;-63
2023/06/20 03:22:39;;;;;;;1.95;1.20;;;;;;;16.83;76.68;99601.84;5113122;28;20085;-63
2023/06/20 03:25:11;;;;;;;1.60;1.50;;;;;;;16.89;76.11;99606.00;5114381;28;20047;-64
2023/06/20 03:27:41;;;;;;;1.13;0.90;;;;;;;16.97;75.65;99604.91;5113906;28;20047;-64
2023/06/20 03:30:11;;;;;;;1.38;1.27;;;;;;;17.03;75.18;99603.88;5113187;28;20042;-63
2023/06/20 03:32:46;;;;;;;1.50;0.90;;;;;;;17.14;74.69;99601.84;5114274;28;20047;-64
2023/06/20 03:35:15;;;;;;;1.15;1.08;;;;;;;17.19;74.34;99600.81;5114132;28;20051;-64
2023/06/20 03:37:45;;;;;;;1.25;1.15;;;;;;;17.28;74.48;99595.38;5114953;28;20043;-64
2023/06/20 03:40:17;;;;;;;1.33;1.23;;;;;;;17.31;74.07;99602.19;5113916;28;20558;-64
2023/06/20 03:42:51;;;;;;;1.35;1.25;;;;;;;17.35;74.14;99601.22;5114187;28;20066;-64
2023/06/20 03:45:21;;;;;;;1.13;0.85;;;;;;;17.40;74.34;99609.66;5114095;28;20044;-64
2023/06/20 03:47:52;;;;;;;1.33;1.05;;;;;;;17.47;73.96;99595.69;5114310;28;20482;-64
2023/06/20 03:50:21;;;;;;;;;;;;;;;17.56;73.53;99602.34;5113635;28;20130;-63
2023/06/20 03:52:51;;;;;;;2.03;1.85;;;;;;;17.65;72.82;99609.81;5113980;28;19927;-63
2023/06/20 03:55:22;;;;;;;1.92;1.30;;;;;;;17.79;72.40;99607.66;5114183;28;20051;-63
2023/06/20 03:57:52;;;;;;;0.80;0.77;;;;;;;17.89;71.93;99619.38;5112658;28;20097;-64
2023/06/20 04:00:21;;;;;;;1.70;1.60;;;;;;;17.99;71.59;99610.47;5113912;28;20046;-64
2023/06/20 04:02:50;;;;;;;2.00;1.85;;;;;;;18.11;71.43;99620.41;5113020;28;20041;-64
2023/06/20 04:05:19;;;;;;;1.75;1.60;;;;;;;18.19;71.17;99623.56;5112638;28;20509;-64
2023/06/20 04:07:48;;;;;;;1.23;1.13;;;;;;;18.24;71.34;99624.25;5114102;28;20130;-64
2023/06/20 04:10:17;;;;;;;1.30;1.20;;;;;;;18.26;71.73;99621.66;5112800;28;20512;-64
2023/06/20 04:12:47;;;;;;;3.57;1.60;;;;;;;18.29;71.45;99624.97;5112904;28;20493;-64
2023/06/20 04:15:16;;;;;;;3.45;2.60;;;;;;;18.35;71.43;99632.53;5112520;28;20318;-64
2023/06/20 04:17:45;;;;;;;0.80;0.80;;;;;;;18.39;71.56;99636.69;5112441;28;20048;-64
2023/06/20 04:20:14;;;;;;;1.52;1.42;;;;;;;18.44;71.25;99634.81;5112881;28;20039;-64
2023/06/20 04:22:45;;;;;;;4.22;1.35;;;;;;;18.47;70.92;99634.75;5113760;28;20097;-64
2023/06/20 04:25:16;;;;;;;1.27;1.17;;;;;;;18.57;70.33;99645.63;5113653;28;20131;-63
2023/06/20 04:27:53;;;;;;;3.08;2.00;;;;;;;18.57;69.88;99643.84;5113604;28;20524;-64
2023/06/20 04:30:27;;;;;;;2.03;1.50;;;;;;;18.66;69.44;99651.31;5113794;28;20096;-64
2023/06/20 04:32:56;;;;;;;3.55;1.70;;;;;;;18.70;69.38;99647.72;5112820;28;20063;-63
2023/06/20 04:35:25;;;;;;;1.40;1.15;;;;;;;18.78;69.08;99647.47;5112315;28;20523;-63
2023/06/20 04:37:56;;;;;;;1.52;1.42;;;;;;;18.89;68.89;99642.75;5112818;28;20028;-63
2023/06/20 04:40:26;;;;;;;1.95;1.23;;;;;;;19.02;68.52;99648.34;5116129;28;20055;-63
2023/06/20 04:42:56;;;;;;;2.67;1.02;;;;;;;19.14;68.26;99638.41;5116242;28;20086;-63
2023/06/20 04:45:25;;;;;;;2.10;1.90;;;;;;;19.26;67.89;99634.53;5116356;28;20545;-64
2023/06/20 04:47:58;;;;;;;1.38;1.23;;;;;;;19.41;67.73;99641.75;5116221;28;20071;-63
2023/06/20 04:50:28;;;;;;;;;;;;;;;19.53;67.28;99636.09;5117674;28;20058;-63
2023/06/20 04:52:58;;;;;;;1.35;1.02;;;;;;;19.56;66.66;99630.81;5117232;28;19959;-63
2023/06/20 04:55:27;;;;;;;1.60;1.25;;;;;;;19.58;66.36;99634.19;5117055;28;20043;-64
2023/06/20 04:57:58;;;;;;;1.83;1.65;;;;;;;19.71;66.21;99640.59;5116153;28;20035;-63
2023/06/20 05:00:27;;;;;;;2.35;1.70;;;;;;;19.79;65.96;99630.78;5115794;28;20036;-64
2023/06/20 05:02:58;;;;;;;1.23;1.08;;;;;;;19.79;66.04;99638.56;5117325;27;20074;-63
2023/06/20 05:05:29;;;;;;;12.95;1.35;;;;;;;19.79;66.05;99643.75;5117815;27;20054;-63
2023/06/20 05:07:58;;;;;;;2.55;1.27;;;;;;;19.88;65.76;99642.53;5115670;28;20047;-63
2023/06/20 05:10:27;;;;;;;1.25;1.15;;;;;;;19.92;65.41;99639.75;5115650;28;20046;-64
2023/06/20 05:12:58;;;;;;;1.38;1.08;;;;;;;19.99;65.26;99632.56;5116735;28;20050;-64
2023/06/20 05:15:27;;;;;;;4.78;1.83;;;;;;;20.18;65.05;99632.72;5116837;28;20083;-64
2023/06/20 05:17:56;;;;;;;1.87;1.50;;;;;;;20.17;64.95;99629.25;5116936;28;20032;-64
2023/06/20 05:20:25;;;;;;;1.10;1.00;;;;;;;20.13;64.99;99634.63;5116688;28;20035;-64
2023/06/20 05:22:54;;;;;;;4.93;1.27;;;;;;;20.17;64.99;99638.78;5116646;28;20039;-63
2023/06/20 05:25:24;;;;;;;1.23;1.05;;;;;;;20.27;64.81;99641.00;5116553;28;20059;-63
2023/06/20 05:27:52;;;;;;;2.67;1.50;;;;;;;20.27;64.55;99634.94;5115326;28;20119;-63
2023/06/20 05:30:23;;;;;;;2.20;1.45;;;;;;;20.39;64.73;99642.22;5116543;28;20120;-64
2023/06/20 05:32:52;;;;;;;2.05;1.77;;;;;;;20.49;64.49;99640.94;5117117;28;20049;-63
2023/06/20 05:35:22;;;;;;;2.38;1.95;;;;;;;20.66;64.48;99646.25;5117045;28;20040;-64
2023/06/20 05:37:50;;;;;;;1.40;0.98;;;;;;;20.84;64.04;99653.25;5115058;28;20032;-63
2023/06/20 05:40:19;;;;;;;0.83;0.77;;;;;;;20.96;63.78;99647.53;5116000;28;20060;-64
2023/06/20 05:42:48;;;;;;;4.20;1.42;;;;;;;21.12;63.81;99643.38;5116568;28;20471;-64
2023/06/20 05:45:17;;;;;;;0.90;0.90;;;;;;;21.21;63.34;99639.56;5116497;28;20040;-64
2023/06/20 05:47:47;;;;;;;1.60;1.05;;;;;;;21.34;62.88;99643.28;5116022;27;20048;-64
2023/06/20 05:50:16;;;;;;;1.20;1.02;;;;;;;21.48;62.27;99645.25;5113848;28;20054;-65
2023/06/20 05:52:45;;;;;;;2.40;1.67;;;;;;;21.58;61.93;99646.50;5104600;28;20498;-64
2023/06/20 05:55:14;;;;;;;1.65;0.88;;;;;;;21.66;61.84;99644.41;5116114;28;20036;-63
2023/06/20 05:57:43;;;;;;;1.98;1.35;;;;;;;21.66;61.52;99644.41;5115948;28;20050;-64
2023/06/20 06:00:12;;;;;;;5.55;2.13;;;;;;;21.78;61.50;99641.25;5115839;28;20071;-64
2023/06/20 06:02:45;;;;;;;1.33;0.85;;;;;;;21.90;61.12;99643.28;5111523;28;20058;-64
2023/06/20 06:05:16;;;;;;;3.40;1.65;;;;;;;22.03;60.69;99639.19;5116166;28;20051;-64
2023/06/20 06:07:45;;;;;;;5.72;2.22;;;;;;;22.22;60.29;99650.38;5116110;28;20051;-64
2023/06/20 06:10:14;;;;;;;7.53;1.70;;;;;;;22.41;59.97;99647.75;5115742;28;20044;-64
2023/06/20 06:12:43;;;;;;;0.80;0.80;;;;;;;22.59;59.21;99658.06;5103644;28;20314;-63
2023/06/20 06:15:12;;;;;;;0.93;0.93;;;;;;;22.48;58.98;99631.72;5095259;28;20559;-64
2023/06/20 06:17:41;;;;;;;;;;;;;;;22.80;59.03;99657.91;5095750;28;20044;-64
2023/06/20 06:20:15;;;;;;;1.27;1.08;;;;;;;22.88;58.65;99663.59;5094937;28;20362;-64
2023/06/20 06:22:46;;;;;;;1.67;1.15;;;;;;;22.90;58.48;99653.94;5095135;28;20063;-64
2023/06/20 06:25:15;;;;;;;1.05;0.98;;;;;;;23.12;58.21;99670.13;5093366;28;20056;-64
2023/06/20 06:27:44;;;;;;;25.85;2.33;;;;;;;23.27;57.35;99669.34;5094021;28;20460;-64
2023/06/20 06:30:15;;;;;;;1.55;1.30;;;;;;;23.41;56.75;99672.09;5095028;28;20060;-63
2023/06/20 06:32:47;;;;;;;3.83;2.05;;;;;;;23.46;55.95;99669.22;5107294;28;20044;-64
2023/06/20 06:35:18;;;;;;;1.27;1.10;;;;;;;23.53;55.81;99670.59;5115260;28;20055;-64
2023/06/20 06:37:48;;;;;;;2.75;1.13;;;;;;;23.65;55.79;99670.78;5115136;28;20066;-63
2023/06/20 06:40:17;;;;;;;5.75;2.45;;;;;;;23.73;55.51;99662.53;5115241;28;20051;-64
2023/06/20 06:42:46;;;;;;;0.70;0.70;;;;;;;23.85;55.32;99660.06;5113805;28;20044;-64
2023/06/20 06:45:15;;;;;;;1.45;1.30;;;;;;;23.99;55.05;99665.38;5112428;28;20036;-65
2023/06/20 06:47:44;;;;;;;1.20;1.08;;;;;;;24.11;54.65;99669.13;5100014;28;20416;-64
2023/06/20 06:50:13;;;;;;;1.23;1.02;;;;;;;24.21;54.33;99664.22;5094499;28;20536;-64
2023/06/20 06:52:41;;;;;;;1.73;1.15;;;;;;;24.30;53.30;99667.16;5113295;27;20046;-64
2023/06/20 06:55:12;;;;;;;0.60;0.60;;;;;;;24.35;52.92;99662.50;5103240;28;20082;-64
2023/06/20 06:57:41;;;;;;;2.53;1.67;;;;;;;24.48;53.00;99657.41;5096624;28;20036;-64
2023/06/20 07:00:14;;;;;;;0.63;0.63;;;;;;;24.64;52.79;99663.44;5106006;28;20047;-64
2023/06/20 07:02:46;;;;;;;1.40;1.23;;;;;;;24.80;52.42;99668.59;5114083;28;20053;-64
2023/06/20 07:05:15;;;;;;;1.73;1.15;;;;;;;24.73;52.09;99668.09;5114711;28;20053;-64
2023/06/20 07:07:43;;;;;;;0.60;0.60;;;;;;;24.74;52.02;99664.53;5113632;28;20131;-64
2023/06/20 07:10:18;;;;;;;1.15;1.05;;;;;;;24.85;51.72;99669.19;5113463;28;20055;-64
2023/06/20 07:12:47;;;;;;;1.55;1.40;;;;;;;24.97;51.90;99666.69;5114542;28;20100;-64
2023/06/20 07:15:15;;;;;;;1.98;1.48;;;;;;;24.97;51.69;99661.47;5112423;28;20036;-64
2023/06/20 07:17:44;;;;;;;2.30;1.10;;;;;;;25.03;51.80;99661.09;5098712;28;20044;-64
2023/06/20 07:20:13;;;;;;;2.60;1.02;;;;;;;25.24;51.83;99661.56;5094040;28;20051;-64
2023/06/20 07:22:42;;;;;;;;;;;;;;;25.38;51.24;99668.56;5093434;28;20040;-63
2023/06/20 07:25:11;;;;;;;1.60;1.35;;;;;;;25.34;51.08;99661.84;5093944;28;19920;-66
2023/06/20 07:27:41;;;;;;;;;;;;;;;25.35;51.30;99661.75;5093944;28;20043;-64
2023/06/20 07:30:11;;;;;;;1.27;0.93;;;;;;;25.44;51.45;99665.56;5093982;28;19920;-64
2023/06/20 07:32:40;;;;;;;1.20;1.10;;;;;;;25.58;51.86;99653.34;5094240;28;20393;-64
2023/06/20 07:35:09;;;;;;;0.60;0.60;;;;;;;25.79;51.30;99657.25;5093901;28;20044;-64
2023/06/20 07:37:38;;;;;;;;;;;;;;;25.89;51.46;99657.50;5112198;28;20044;-64
2023/06/20 07:40:08;;;;;;;1.33;1.17;;;;;;;26.04;50.97;99655.66;5113906;28;20308;-64
2023/06/20 07:42:37;;;;;;;3.05;1.52;;;;;;;26.10;50.17;99653.50;5114332;28;20043;-64
2023/06/20 07:45:08;;;;;;;0.82;0.82;;;;;;;26.24;50.61;99648.22;5114378;28;20134;-64
2023/06/20 07:47:37;;;;;;;0.70;0.70;;;;;;;26.35;49.97;99656.22;5112806;28;20036;-64
2023/06/20 07:50:07;;;;;;;1.13;0.98;;;;;;;26.44;49.67;99654.78;5114195;28;20093;-64
2023/06/20 07:52:36;;;;;;;1.15;0.90;;;;;;;26.53;49.79;99648.94;5114264;28;20048;-64
2023/06/20 07:55:05;;;;;;;0.77;0.77;;;;;;;26.50;49.21;99638.66;5114198;28;20045;-64
2023/06/20 07:57:53;;;;;;;0.90;0.90;;;;;;;26.73;48.68;99658.06;5100726;28;20136;-64
2023/06/20 08:00:25;;;;;;;1.13;1.00;;;;;;;26.77;48.87;99656.94;5093395;28;20041;-64
2023/06/20 08:02:54;;;;;;;1.40;1.25;;;;;;;26.79;48.74;99660.31;5093643;28;20040;-64
2023/06/20 08:05:23;;;;;;;1.05;0.73;;;;;;;26.92;49.48;99661.16;5093152;28;20044;-64
2023/06/20 08:07:53;;;;;;;1.63;1.00;;;;;;;27.00;48.93;99659.69;5093341;28;20106;-64
2023/06/20 08:10:22;;;;;;;0.80;0.80;;;;;;;27.22;49.83;99669.53;5093414;28;20533;-64
2023/06/20 08:12:51;;;;;;;1.98;1.38;;;;;;;27.22;49.89;99645.94;5095054;28;20044;-64
2023/06/20 08:15:20;;;;;;;;;;;;;;;27.49;50.01;99672.91;5098499;28;20046;-65
2023/06/20 08:17:50;;;;;;;0.75;0.75;;;;;;;27.45;49.72;99670.59;5118114;28;19973;-64
2023/06/20 08:20:20;;;;;;;1.00;0.93;;;;;;;27.57;49.64;99681.03;5117879;28;20044;-64
2023/06/20 08:22:49;;;;;;;4.85;2.05;;;;;;;27.32;49.43;99675.81;5118029;28;20421;-64
2023/06/20 08:25:18;;;;;;;1.52;1.10;;;;;;;27.27;49.76;99683.16;5115211;28;20048;-64
2023/06/20 08:27:47;;;;;;;1.52;1.33;;;;;;;27.33;49.17;99677.47;5097164;28;20370;-64
2023/06/20 08:30:27;;;;;;;1.17;0.60;;;;;;;27.44;49.46;99664.50;5097521;28;20044;-64
2023/06/20 08:32:58;;;;;;;1.52;0.88;;;;;;;27.35;49.07;99674.78;5109277;28;20070;-65
2023/06/20 08:35:27;;;;;;;2.63;1.58;;;;;;;27.35;49.66;99670.38;5097038;28;20051;-64
2023/06/20 08:37:55;;;;;;;1.05;0.93;;;;;;;27.60;50.47;99675.59;5097094;28;20143;-64
2023/06/20 08:40:25;;;;;;;0.85;0.75;;;;;;;27.73;50.32;99659.81;5096757;28;20044;-65
2023/06/20 08:42:56;;;;;;;1.30;1.15;;;;;;;27.71;49.32;99670.44;5096452;28;20408;-64
2023/06/20 08:45:27;;;;;;;1.70;1.27;;;;;;;27.64;49.63;99666.53;5096865;28;20044;-64
2023/06/20 08:47:58;;;;;;;0.77;0.77;;;;;;;27.74;49.73;99666.72;5096994;28;20113;-64
2023/06/20 08:50:27;;;;;;;0.95;0.80;;;;;;;27.78;50.08;99663.81;5097220;28;20052;-64
2023/06/20 08:53:01;;;;;;;1.45;1.35;;;;;;;27.96;50.51;99666.03;5096887;28;20174;-64
2023/06/20 08:55:31;;;;;;;1.00;0.88;;;;;;;28.07;49.61;99674.00;5108754;28;20541;-64
2023/06/20 08:58:00;;;;;;;1.50;1.13;;;;;;;28.06;49.57;99685.44;5117149;28;20048;-64
2023/06/20 09:00:33;;;;;;;1.10;0.98;;;;;;;28.21;50.35;99676.47;5115956;28;20124;-64
2023/06/20 09:03:04;;;;;;;1.30;1.13;;;;;;;28.29;50.71;99680.19;5117286;28;20044;-64
2023/06/20 09:05:40;;;;;;;0.80;0.80;;;;;;;28.37;50.09;99679.63;5115608;28;20489;-65
2023/06/20 09:08:14;;;;;;;1.13;0.90;;;;;;;28.43;49.40;99687.06;5116947;28;20092;-65
2023/06/20 09:10:44;;;;;;;0.95;0.93;;;;;;;28.48;49.01;99696.28;5115642;28;20040;-64
2023/06/20 09:13:14;;;;;;;0.82;0.82;;;;;;;28.46;49.28;99687.66;5117144;28;20047;-65
2023/06/20 09:15:43;;;;;;;1.40;1.20;;;;;;;28.36;49.28;99662.22;5102443;28;20126;-66
2023/06/20 09:18:15;;;;;;;3.50;0.93;;;;;;;28.60;49.27;99678.81;5095825;28;20037;-65
2023/06/20 09:20:44;;;;;;;0.70;0.70;;;;;;;28.79;49.84;99686.16;5096279;28;20040;-65
2023/06/20 09:23:27;;;;;;;0.77;0.77;;;;;;;28.87;49.69;99681.97;5096262;28;20052;-65
2023/06/20 09:25:56;;;;;;;1.30;1.20;;;;;;;29.10;50.40;99688.97;5104520;28;20085;-65
2023/06/20 09:28:33;;;;;;;3.05;1.23;;;;;;;28.86;49.92;99658.44;5116538;28;20040;-65
2023/06/20 09:31:03;;;;;;;1.17;1.08;;;;;;;28.94;49.15;99672.66;5116732;28;20047;-65
2023/06/20 09:33:37;;;;;;;1.73;1.38;;;;;;;28.88;47.83;99674.94;5115113;28;20075;-65
2023/06/20 09:36:13;;;;;;;2.47;1.45;;;;;;;28.61;47.53;99669.13;5116462;27;20131;-64
2023/06/20 09:38:45;;;;;;;3.50;1.40;;;;;;;28.74;47.59;99673.34;5116125;28;20126;-65
2023/06/20 09:41:17;;;;;;;1.25;0.98;;;;;;;28.73;47.34;99678.72;5114239;28;20089;-66
2023/06/20 09:43:47;;;;;;;2.25;1.23;;;;;;;28.82;47.63;99672.78;5096120;28;20140;-65
2023/06/20 09:46:15;;;;;;;;;;;;;;;28.97;47.88;99675.06;5102641;28;20486;-65
2023/06/20 09:48:46;;;;;;;1.75;1.50;;;;;;;28.93;47.63;99671.00;5095724;28;19924;-65
2023/06/20 09:51:16;;;;;;;1.75;1.27;;;;;;;29.01;47.79;99673.88;5095742;28;20040;-65
2023/06/20 09:53:48;;;;;;;2.20;1.48;;;;;;;29.18;48.10;99665.56;5095751;28;20455;-65
2023/06/20 09:56:20;;;;;;;1.00;0.93;;;;;;;29.39;48.12;99664.84;5095545;28;20085;-65
2023/06/20 09:58:51;;;;;;;0.90;0.85;;;;;;;29.48;47.71;99664.97;5095515;28;20051;-65
2023/06/20 10:01:22;;;;;;;0.73;0.73;;;;;;;29.50;47.82;99667.47;5096887;28;20149;-65
2023/06/20 10:03:54;;;;;;;0.65;0.63;;;;;;;29.57;47.65;99660.75;5109846;28;20047;-65
2023/06/20 10:06:23;;;;;;;0.85;0.73;;;;;;;29.50;47.33;99667.47;5103680;28;20107;-64
2023/06/20 10:08:53;;;;;;;1.67;1.25;;;;;;;29.45;48.08;99661.72;5095430;28;20040;-65
2023/06/20 10:11:23;;;;;;;0.80;0.80;;;;;;;29.44;47.66;99654.81;5095582;28;20058;-65
2023/06/20 10:13:53;;;;;;;1.13;0.95;;;;;;;29.48;47.97;99635.19;5095300;28;20058;-65
2023/06/20 10:16:27;;;;;;;1.58;1.25;;;;;;;29.59;47.32;99650.94;5095154;28;20052;-65
2023/06/20 10:18:58;;;;;;;1.48;1.33;;;;;;;29.80;47.67;99644.03;5095381;28;20405;-65
2023/06/20 10:21:52;;;;;;;1.35;1.17;;;;;;;30.04;47.35;99639.41;5104640;27;20050;-65
2023/06/20 10:24:22;;;;;;;1.33;1.23;;;;;;;30.00;45.92;99643.22;5095280;28;20040;-66
2023/06/20 10:26:54;;;;;;;0.80;0.80;;;;;;;29.81;44.31;99641.25;5095043;28;20048;-65
2023/06/20 10:29:23;;;;;;;1.38;1.17;;;;;;;29.80;44.38;99628.22;5094996;28;20135;-65
2023/06/20 10:32:03;;;;;;;1.33;1.23;;;;;;;29.94;44.38;99627.94;5094685;28;20097;-66
2023/06/20 10:34:38;;;;;;;1.25;1.15;;;;;;;30.03;44.55;99636.88;5095197;28;20144;-65
2023/06/20 10:37:36;;;;;;;1.38;1.23;;;;;;;29.86;44.71;99604.03;5094831;28;20048;-65
2023/06/20 10:40:09;;;;;;;0.80;0.80;;;;;;;29.96;41.85;99628.66;5088873;28;20101;-65
2023/06/20 10:42:41;;;;;;;1.10;1.00;;;;;;;30.08;41.84;99635.56;5094189;28;20445;-66
2023/06/20 10:45:22;;;;;;;1.27;1.00;;;;;;;30.17;42.62;99637.41;5095068;28;20047;-65
2023/06/20 10:47:51;;;;;;;0.77;0.77;;;;;;;30.26;43.46;99623.50;5094516;28;20052;-65
2023/06/20 10:50:22;;;;;;;2.15;1.90;;;;;;;30.28;43.48;99628.66;5093898;28;20040;-66
2023/06/20 10:52:52;;;;;;;1.38;1.05;;;;;;;30.31;43.00;99625.75;5093952;28;20097;-66
2023/06/20 10:55:26;;;;;;;3.25;1.50;;;;;;;30.35;42.02;99627.22;5094742;28;20040;-65
2023/06/20 10:57:55;;;;;;;0.50;0.50;;;;;;;30.35;42.10;99621.94;5094819;28;20040;-65
2023/06/20 11:00:24;;;;;;;0.70;0.70;;;;;;;30.39;42.38;99624.19;5094042;28;20075;-66
2023/06/20 11:02:55;;;;;;;0.88;0.88;;;;;;;30.39;42.64;99620.72;5114917;28;20130;-65
2023/06/20 11:05:28;;;;;;;1.23;1.13;;;;;;;30.30;43.04;99597.75;5112621;28;20036;-65
2023/06/20 11:07:59;;;;;;;1.90;1.67;;;;;;;30.59;43.26;99608.50;5096717;28;20460;-65
2023/06/20 11:10:30;;;;;;;0.63;0.63;;;;;;;30.70;43.24;99611.91;5094483;28;20059;-66
2023/06/20 11:13:01;;;;;;;1.83;1.05;;;;;;;30.67;42.40;99613.94;5115157;28;20047;-65
2023/06/20 11:15:32;;;;;;;0.90;0.90;;;;;;;30.73;41.30;99611.66;5114575;28;20101;-65
2023/06/20 11:18:03;;;;;;;1.42;1.08;;;;;;;30.61;40.76;99611.84;5114722;28;20054;-66
2023/06/20 11:20:39;;;;;;;0.70;0.70;;;;;;;30.57;40.95;99611.25;5111193;28;20040;-67
2023/06/20 11:23:10;;;;;;;1.27;1.10;;;;;;;30.67;40.78;99608.66;5095834;28;20044;-67
2023/06/20 11:25:40;;;;;;;0.85;0.80;;;;;;;30.72;39.68;99609.13;5101472;28;20036;-66
2023/06/20 11:28:10;;;;;;;3.47;1.63;;;;;;;30.84;39.67;99610.72;5109370;28;20031;-67
2023/06/20 11:30:41;;;;;;;0.57;0.57;;;;;;;30.83;40.50;99611.69;5100241;28;20059;-65
2023/06/20 11:33:14;;;;;;;1.38;1.05;;;;;;;30.87;41.12;99606.03;5113195;28;20105;-65
2023/06/20 11:35:51;;;;;;;1.17;1.05;;;;;;;30.85;40.06;99593.94;5114229;28;20481;-65
2023/06/20 11:38:22;;;;;;;0.70;0.65;;;;;;;30.99;39.79;99602.38;5111155;28;20075;-66
2023/06/20 11:41:03;;;;;;;0.60;0.60;;;;;;;31.07;38.71;99599.09;5095155;28;20048;-66
2023/06/20 11:43:37;;;;;;;0.85;0.85;;;;;;;31.13;39.22;99602.00;5093633;28;20048;-66
2023/06/20 11:46:07;;;;;;;0.77;0.77;;;;;;;31.19;38.82;99592.75;5093828;28;20130;-65
2023/06/20 11:48:37;;;;;;;1.83;1.10;;;;;;;31.18;39.71;99604.25;5093413;28;20452;-66
2023/06/20 11:51:07;;;;;;;0.80;0.80;;;;;;;31.05;39.56;99585.19;5113981;28;20047;-66
2023/06/20 11:53:37;;;;;;;1.15;0.98;;;;;;;31.06;39.59;99592.97;5114243;28;20393;-66